sensor_id;sensor_type;location;lat;lon;timestamp;P1;durP1;ratioP1;P2;durP2;ratioP2
10645;SDS011;5371;49.782;9.932;2023-08-06T00:00:07;4.38;;;3.72;;
10645;SDS011;5371;49.782;9.932;2023-08-06T00:02:34;3.90;;;3.13;;
10645;SDS011;5371;49.782;9.932;2023-08-06T00:05:01;4.40;;;3.22;;
10645;SDS011;5371;49.782;9.932;2023-08-06T00:07:29;3.63;;;3.03;;
10645;SDS011;5371;49.782;9.932;2023-08-06T00:09:57;5.10;;;3.25;;
10645;SDS011;5371;49.782;9.932;2023-08-06T00:12:24;4.55;;;3.17;;
10645;SDS011;5371;49.782;9.932;2023-08-06T00:14:52;3.83;;;3.10;;
10645;SDS011;5371;49.782;9.932;2023-08-06T00:17:19;3.80;;;2.90;;
10645;SDS011;5371;49.782;9.932;2023-08-06T00:19:46;7.15;;;3.30;;
10645;SDS011;5371;49.782;9.932;2023-08-06T00:22:14;5.28;;;3.40;;
10645;SDS011;5371;49.782;9.932;2023-08-06T00:24:41;4.22;;;3.50;;
10645;SDS011;5371;49.782;9.932;2023-08-06T00:27:10;4.47;;;2.90;;
10645;SDS011;5371;49.782;9.932;2023-08-06T00:29:37;3.40;;;2.67;;
10645;SDS011;5371;49.782;9.932;2023-08-06T00:32:04;3.17;;;2.60;;
10645;SDS011;5371;49.782;9.932;2023-08-06T00:34:31;3.17;;;2.85;;
10645;SDS011;5371;49.782;9.932;2023-08-06T00:36:58;4.22;;;2.90;;
10645;SDS011;5371;49.782;9.932;2023-08-06T00:39:25;3.13;;;2.67;;
10645;SDS011;5371;49.782;9.932;2023-08-06T00:41:52;3.00;;;2.40;;
10645;SDS011;5371;49.782;9.932;2023-08-06T00:44:21;3.20;;;2.42;;
10645;SDS011;5371;49.782;9.932;2023-08-06T00:46:48;3.85;;;2.50;;
10645;SDS011;5371;49.782;9.932;2023-08-06T00:49:16;3.78;;;2.50;;
10645;SDS011;5371;49.782;9.932;2023-08-06T00:51:43;3.28;;;2.40;;
10645;SDS011;5371;49.782;9.932;2023-08-06T00:54:10;3.20;;;2.38;;
10645;SDS011;5371;49.782;9.932;2023-08-06T00:56:38;3.47;;;2.35;;
10645;SDS011;5371;49.782;9.932;2023-08-06T00:59:05;3.08;;;2.40;;
10645;SDS011;5371;49.782;9.932;2023-08-06T01:01:35;3.13;;;2.55;;
10645;SDS011;5371;49.782;9.932;2023-08-06T01:04:02;3.50;;;2.42;;
10645;SDS011;5371;49.782;9.932;2023-08-06T01:06:32;3.58;;;2.13;;
10645;SDS011;5371;49.782;9.932;2023-08-06T01:09:05;3.25;;;2.53;;
10645;SDS011;5371;49.782;9.932;2023-08-06T01:11:38;2.75;;;2.40;;
10645;SDS011;5371;49.782;9.932;2023-08-06T01:14:12;4.00;;;2.45;;
10645;SDS011;5371;49.782;9.932;2023-08-06T01:16:44;9.25;;;3.00;;
10645;SDS011;5371;49.782;9.932;2023-08-06T01:19:15;5.57;;;2.47;;
10645;SDS011;5371;49.782;9.932;2023-08-06T01:21:45;3.90;;;2.67;;
10645;SDS011;5371;49.782;9.932;2023-08-06T01:24:13;8.43;;;2.95;;
10645;SDS011;5371;49.782;9.932;2023-08-06T01:26:42;3.60;;;2.50;;
10645;SDS011;5371;49.782;9.932;2023-08-06T01:29:13;4.70;;;2.60;;
10645;SDS011;5371;49.782;9.932;2023-08-06T01:31:43;3.40;;;2.65;;
10645;SDS011;5371;49.782;9.932;2023-08-06T01:34:13;3.70;;;2.60;;
10645;SDS011;5371;49.782;9.932;2023-08-06T01:36:45;3.78;;;2.60;;
10645;SDS011;5371;49.782;9.932;2023-08-06T01:39:12;5.15;;;2.67;;
10645;SDS011;5371;49.782;9.932;2023-08-06T01:41:39;3.63;;;2.67;;
10645;SDS011;5371;49.782;9.932;2023-08-06T01:44:06;2.72;;;2.53;;
10645;SDS011;5371;49.782;9.932;2023-08-06T01:46:33;4.72;;;2.67;;
10645;SDS011;5371;49.782;9.932;2023-08-06T01:49:00;3.70;;;2.60;;
10645;SDS011;5371;49.782;9.932;2023-08-06T01:51:30;3.20;;;2.70;;
10645;SDS011;5371;49.782;9.932;2023-08-06T01:54:02;4.90;;;2.80;;
10645;SDS011;5371;49.782;9.932;2023-08-06T01:56:29;4.25;;;2.90;;
10645;SDS011;5371;49.782;9.932;2023-08-06T01:58:56;3.30;;;2.88;;
10645;SDS011;5371;49.782;9.932;2023-08-06T02:01:23;2.65;;;2.45;;
10645;SDS011;5371;49.782;9.932;2023-08-06T02:03:52;2.70;;;2.50;;
10645;SDS011;5371;49.782;9.932;2023-08-06T02:06:20;3.33;;;2.88;;
10645;SDS011;5371;49.782;9.932;2023-08-06T02:08:47;4.28;;;2.92;;
10645;SDS011;5371;49.782;9.932;2023-08-06T02:11:16;4.35;;;2.70;;
10645;SDS011;5371;49.782;9.932;2023-08-06T02:13:44;4.60;;;2.80;;
10645;SDS011;5371;49.782;9.932;2023-08-06T02:16:17;3.72;;;2.63;;
10645;SDS011;5371;49.782;9.932;2023-08-06T02:18:44;4.13;;;3.10;;
10645;SDS011;5371;49.782;9.932;2023-08-06T02:21:20;4.13;;;2.80;;
10645;SDS011;5371;49.782;9.932;2023-08-06T02:23:47;4.65;;;2.88;;
10645;SDS011;5371;49.782;9.932;2023-08-06T02:26:17;3.63;;;2.47;;
10645;SDS011;5371;49.782;9.932;2023-08-06T02:28:44;4.95;;;3.28;;
10645;SDS011;5371;49.782;9.932;2023-08-06T02:31:13;4.63;;;2.75;;
10645;SDS011;5371;49.782;9.932;2023-08-06T02:33:40;3.15;;;2.70;;
10645;SDS011;5371;49.782;9.932;2023-08-06T02:36:07;2.83;;;2.60;;
10645;SDS011;5371;49.782;9.932;2023-08-06T02:38:35;4.18;;;3.05;;
10645;SDS011;5371;49.782;9.932;2023-08-06T02:41:02;3.78;;;2.78;;
10645;SDS011;5371;49.782;9.932;2023-08-06T02:43:31;4.68;;;3.08;;
10645;SDS011;5371;49.782;9.932;2023-08-06T02:45:58;3.78;;;2.65;;
10645;SDS011;5371;49.782;9.932;2023-08-06T02:48:26;2.83;;;2.47;;
10645;SDS011;5371;49.782;9.932;2023-08-06T02:50:56;3.25;;;2.47;;
10645;SDS011;5371;49.782;9.932;2023-08-06T02:53:24;3.67;;;2.75;;
10645;SDS011;5371;49.782;9.932;2023-08-06T02:55:51;2.75;;;2.55;;
10645;SDS011;5371;49.782;9.932;2023-08-06T02:58:24;3.92;;;2.65;;
10645;SDS011;5371;49.782;9.932;2023-08-06T03:01:04;3.30;;;2.60;;
10645;SDS011;5371;49.782;9.932;2023-08-06T03:03:41;3.58;;;2.50;;
10645;SDS011;5371;49.782;9.932;2023-08-06T03:06:09;3.80;;;2.72;;
10645;SDS011;5371;49.782;9.932;2023-08-06T03:08:45;3.70;;;2.35;;
10645;SDS011;5371;49.782;9.932;2023-08-06T03:11:12;6.13;;;2.70;;
10645;SDS011;5371;49.782;9.932;2023-08-06T03:13:40;4.28;;;2.67;;
10645;SDS011;5371;49.782;9.932;2023-08-06T03:16:09;3.38;;;2.50;;
10645;SDS011;5371;49.782;9.932;2023-08-06T03:18:36;3.05;;;2.63;;
10645;SDS011;5371;49.782;9.932;2023-08-06T03:21:05;6.22;;;2.95;;
10645;SDS011;5371;49.782;9.932;2023-08-06T03:23:32;2.83;;;2.47;;
10645;SDS011;5371;49.782;9.932;2023-08-06T03:26:01;3.38;;;2.47;;
10645;SDS011;5371;49.782;9.932;2023-08-06T03:28:29;3.78;;;2.70;;
10645;SDS011;5371;49.782;9.932;2023-08-06T03:30:59;2.92;;;2.53;;
10645;SDS011;5371;49.782;9.932;2023-08-06T03:33:32;4.63;;;2.90;;
10645;SDS011;5371;49.782;9.932;2023-08-06T03:36:01;3.08;;;2.78;;
10645;SDS011;5371;49.782;9.932;2023-08-06T03:38:28;3.00;;;2.70;;
10645;SDS011;5371;49.782;9.932;2023-08-06T03:40:55;3.72;;;2.80;;
10645;SDS011;5371;49.782;9.932;2023-08-06T03:43:22;4.78;;;2.70;;
10645;SDS011;5371;49.782;9.932;2023-08-06T03:45:50;4.75;;;3.00;;
10645;SDS011;5371;49.782;9.932;2023-08-06T03:48:18;5.13;;;2.60;;
10645;SDS011;5371;49.782;9.932;2023-08-06T03:50:46;3.38;;;2.83;;
10645;SDS011;5371;49.782;9.932;2023-08-06T03:53:15;3.17;;;2.55;;
10645;SDS011;5371;49.782;9.932;2023-08-06T03:55:42;4.07;;;2.60;;
10645;SDS011;5371;49.782;9.932;2023-08-06T03:58:09;3.83;;;2.90;;
10645;SDS011;5371;49.782;9.932;2023-08-06T04:00:37;3.10;;;2.80;;
10645;SDS011;5371;49.782;9.932;2023-08-06T04:03:04;4.38;;;2.80;;
10645;SDS011;5371;49.782;9.932;2023-08-06T04:05:31;4.43;;;2.90;;
10645;SDS011;5371;49.782;9.932;2023-08-06T04:08:00;3.40;;;2.63;;
10645;SDS011;5371;49.782;9.932;2023-08-06T04:10:27;3.25;;;2.88;;
10645;SDS011;5371;49.782;9.932;2023-08-06T04:12:55;4.30;;;2.95;;
10645;SDS011;5371;49.782;9.932;2023-08-06T04:15:22;3.63;;;3.08;;
10645;SDS011;5371;49.782;9.932;2023-08-06T04:17:49;5.22;;;3.00;;
10645;SDS011;5371;49.782;9.932;2023-08-06T04:20:16;2.97;;;2.58;;
10645;SDS011;5371;49.782;9.932;2023-08-06T04:22:43;3.75;;;2.97;;
10645;SDS011;5371;49.782;9.932;2023-08-06T04:25:12;3.30;;;3.00;;
10645;SDS011;5371;49.782;9.932;2023-08-06T04:27:39;4.13;;;3.05;;
10645;SDS011;5371;49.782;9.932;2023-08-06T04:30:07;4.97;;;3.28;;
10645;SDS011;5371;49.782;9.932;2023-08-06T04:32:37;3.40;;;3.10;;
10645;SDS011;5371;49.782;9.932;2023-08-06T04:35:06;4.18;;;3.10;;
10645;SDS011;5371;49.782;9.932;2023-08-06T04:37:34;4.57;;;3.15;;
10645;SDS011;5371;49.782;9.932;2023-08-06T04:40:02;4.82;;;3.38;;
10645;SDS011;5371;49.782;9.932;2023-08-06T04:42:30;3.30;;;3.00;;
10645;SDS011;5371;49.782;9.932;2023-08-06T04:44:57;5.63;;;3.00;;
10645;SDS011;5371;49.782;9.932;2023-08-06T04:47:25;6.03;;;2.97;;
10645;SDS011;5371;49.782;9.932;2023-08-06T04:49:52;4.28;;;3.33;;
10645;SDS011;5371;49.782;9.932;2023-08-06T04:52:19;3.70;;;2.78;;
10645;SDS011;5371;49.782;9.932;2023-08-06T04:54:46;4.95;;;3.17;;
10645;SDS011;5371;49.782;9.932;2023-08-06T04:57:13;6.15;;;2.97;;
10645;SDS011;5371;49.782;9.932;2023-08-06T04:59:42;4.70;;;2.80;;
10645;SDS011;5371;49.782;9.932;2023-08-06T05:02:09;4.45;;;2.58;;
10645;SDS011;5371;49.782;9.932;2023-08-06T05:04:36;3.45;;;3.10;;
10645;SDS011;5371;49.782;9.932;2023-08-06T05:07:03;3.40;;;2.63;;
10645;SDS011;5371;49.782;9.932;2023-08-06T05:09:32;3.47;;;2.70;;
10645;SDS011;5371;49.782;9.932;2023-08-06T05:12:00;2.95;;;2.75;;
10645;SDS011;5371;49.782;9.932;2023-08-06T05:14:27;4.95;;;2.85;;
10645;SDS011;5371;49.782;9.932;2023-08-06T05:16:56;3.65;;;2.85;;
10645;SDS011;5371;49.782;9.932;2023-08-06T05:19:23;2.90;;;2.60;;
10645;SDS011;5371;49.782;9.932;2023-08-06T05:21:50;3.85;;;2.95;;
10645;SDS011;5371;49.782;9.932;2023-08-06T05:24:17;4.32;;;2.80;;
10645;SDS011;5371;49.782;9.932;2023-08-06T05:26:44;6.05;;;2.88;;
10645;SDS011;5371;49.782;9.932;2023-08-06T05:29:13;5.85;;;2.85;;
10645;SDS011;5371;49.782;9.932;2023-08-06T05:31:39;5.75;;;2.70;;
10645;SDS011;5371;49.782;9.932;2023-08-06T05:34:08;5.53;;;2.78;;
10645;SDS011;5371;49.782;9.932;2023-08-06T05:36:36;3.80;;;2.47;;
10645;SDS011;5371;49.782;9.932;2023-08-06T05:39:04;4.45;;;2.70;;
10645;SDS011;5371;49.782;9.932;2023-08-06T05:41:31;3.67;;;2.67;;
10645;SDS011;5371;49.782;9.932;2023-08-06T05:44:03;4.80;;;2.60;;
10645;SDS011;5371;49.782;9.932;2023-08-06T05:46:30;3.85;;;2.80;;
10645;SDS011;5371;49.782;9.932;2023-08-06T05:48:57;3.72;;;2.58;;
10645;SDS011;5371;49.782;9.932;2023-08-06T05:51:27;4.82;;;2.65;;
10645;SDS011;5371;49.782;9.932;2023-08-06T05:53:54;4.93;;;2.55;;
10645;SDS011;5371;49.782;9.932;2023-08-06T05:56:21;4.05;;;2.50;;
10645;SDS011;5371;49.782;9.932;2023-08-06T05:58:49;2.90;;;1.92;;
10645;SDS011;5371;49.782;9.932;2023-08-06T06:01:18;2.75;;;2.05;;
10645;SDS011;5371;49.782;9.932;2023-08-06T06:03:45;4.32;;;2.22;;
10645;SDS011;5371;49.782;9.932;2023-08-06T06:06:13;3.78;;;2.00;;
10645;SDS011;5371;49.782;9.932;2023-08-06T06:08:41;3.90;;;2.30;;
10645;SDS011;5371;49.782;9.932;2023-08-06T06:11:08;4.60;;;2.20;;
10645;SDS011;5371;49.782;9.932;2023-08-06T06:13:35;4.28;;;1.98;;
10645;SDS011;5371;49.782;9.932;2023-08-06T06:16:02;3.15;;;2.10;;
10645;SDS011;5371;49.782;9.932;2023-08-06T06:18:31;3.58;;;2.30;;
10645;SDS011;5371;49.782;9.932;2023-08-06T06:21:00;4.85;;;2.20;;
10645;SDS011;5371;49.782;9.932;2023-08-06T06:23:28;4.20;;;2.30;;
10645;SDS011;5371;49.782;9.932;2023-08-06T06:25:56;4.07;;;1.88;;
10645;SDS011;5371;49.782;9.932;2023-08-06T06:28:24;3.92;;;1.70;;
10645;SDS011;5371;49.782;9.932;2023-08-06T06:30:51;5.40;;;2.10;;
10645;SDS011;5371;49.782;9.932;2023-08-06T06:33:18;3.85;;;1.90;;
10645;SDS011;5371;49.782;9.932;2023-08-06T06:35:45;5.28;;;2.20;;
10645;SDS011;5371;49.782;9.932;2023-08-06T06:38:12;3.25;;;1.98;;
10645;SDS011;5371;49.782;9.932;2023-08-06T06:40:39;2.85;;;1.73;;
10645;SDS011;5371;49.782;9.932;2023-08-06T06:43:08;4.10;;;1.90;;
10645;SDS011;5371;49.782;9.932;2023-08-06T06:45:35;4.45;;;1.80;;
10645;SDS011;5371;49.782;9.932;2023-08-06T06:48:03;6.07;;;1.80;;
10645;SDS011;5371;49.782;9.932;2023-08-06T06:50:31;2.15;;;1.70;;
10645;SDS011;5371;49.782;9.932;2023-08-06T06:52:58;2.88;;;1.70;;
10645;SDS011;5371;49.782;9.932;2023-08-06T06:55:25;2.83;;;1.67;;
10645;SDS011;5371;49.782;9.932;2023-08-06T06:57:52;3.28;;;1.48;;
10645;SDS011;5371;49.782;9.932;2023-08-06T07:00:20;3.22;;;1.40;;
10645;SDS011;5371;49.782;9.932;2023-08-06T07:02:47;5.53;;;1.88;;
10645;SDS011;5371;49.782;9.932;2023-08-06T07:05:16;1.40;;;1.27;;
10645;SDS011;5371;49.782;9.932;2023-08-06T07:07:44;2.35;;;1.38;;
10645;SDS011;5371;49.782;9.932;2023-08-06T07:10:11;1.30;;;1.20;;
10645;SDS011;5371;49.782;9.932;2023-08-06T07:12:38;2.60;;;1.35;;
10645;SDS011;5371;49.782;9.932;2023-08-06T07:15:06;2.15;;;1.40;;
10645;SDS011;5371;49.782;9.932;2023-08-06T07:17:35;2.65;;;1.40;;
10645;SDS011;5371;49.782;9.932;2023-08-06T07:20:02;1.90;;;1.38;;
10645;SDS011;5371;49.782;9.932;2023-08-06T07:22:30;1.55;;;1.45;;
10645;SDS011;5371;49.782;9.932;2023-08-06T07:24:57;2.08;;;1.50;;
10645;SDS011;5371;49.782;9.932;2023-08-06T07:27:24;1.92;;;1.30;;
10645;SDS011;5371;49.782;9.932;2023-08-06T07:29:51;2.65;;;1.52;;
10645;SDS011;5371;49.782;9.932;2023-08-06T07:32:18;2.22;;;1.13;;
10645;SDS011;5371;49.782;9.932;2023-08-06T07:34:47;3.10;;;1.10;;
10645;SDS011;5371;49.782;9.932;2023-08-06T07:37:14;2.22;;;1.27;;
10645;SDS011;5371;49.782;9.932;2023-08-06T07:39:41;2.75;;;1.40;;
10645;SDS011;5371;49.782;9.932;2023-08-06T07:42:08;2.38;;;1.27;;
10645;SDS011;5371;49.782;9.932;2023-08-06T07:44:37;1.60;;;1.00;;
10645;SDS011;5371;49.782;9.932;2023-08-06T07:47:04;1.48;;;0.98;;
10645;SDS011;5371;49.782;9.932;2023-08-06T07:49:32;1.85;;;1.02;;
10645;SDS011;5371;49.782;9.932;2023-08-06T07:52:00;1.85;;;1.00;;
10645;SDS011;5371;49.782;9.932;2023-08-06T07:54:28;2.30;;;1.05;;
10645;SDS011;5371;49.782;9.932;2023-08-06T07:56:55;2.03;;;1.20;;
10645;SDS011;5371;49.782;9.932;2023-08-06T07:59:22;1.77;;;1.13;;
10645;SDS011;5371;49.782;9.932;2023-08-06T08:01:49;1.90;;;1.17;;
10645;SDS011;5371;49.782;9.932;2023-08-06T08:04:17;2.33;;;1.10;;
10645;SDS011;5371;49.782;9.932;2023-08-06T08:06:47;1.52;;;0.95;;
10645;SDS011;5371;49.782;9.932;2023-08-06T08:09:15;1.33;;;0.98;;
10645;SDS011;5371;49.782;9.932;2023-08-06T08:11:43;0.80;;;0.80;;
10645;SDS011;5371;49.782;9.932;2023-08-06T08:14:10;1.23;;;0.88;;
10645;SDS011;5371;49.782;9.932;2023-08-06T08:16:37;3.25;;;1.08;;
10645;SDS011;5371;49.782;9.932;2023-08-06T08:19:04;1.45;;;1.10;;
10645;SDS011;5371;49.782;9.932;2023-08-06T08:21:31;1.30;;;0.90;;
10645;SDS011;5371;49.782;9.932;2023-08-06T08:23:59;1.67;;;1.00;;
10645;SDS011;5371;49.782;9.932;2023-08-06T08:26:28;3.88;;;1.00;;
10645;SDS011;5371;49.782;9.932;2023-08-06T08:28:56;1.95;;;1.10;;
10645;SDS011;5371;49.782;9.932;2023-08-06T08:31:23;2.47;;;1.10;;
10645;SDS011;5371;49.782;9.932;2023-08-06T08:33:50;1.50;;;1.10;;
10645;SDS011;5371;49.782;9.932;2023-08-06T08:36:19;1.10;;;1.00;;
10645;SDS011;5371;49.782;9.932;2023-08-06T08:38:46;2.70;;;1.10;;
10645;SDS011;5371;49.782;9.932;2023-08-06T08:41:13;2.38;;;1.08;;
10645;SDS011;5371;49.782;9.932;2023-08-06T08:43:41;2.50;;;1.10;;
10645;SDS011;5371;49.782;9.932;2023-08-06T08:46:09;1.75;;;1.00;;
10645;SDS011;5371;49.782;9.932;2023-08-06T08:48:36;1.50;;;0.90;;
10645;SDS011;5371;49.782;9.932;2023-08-06T08:51:03;2.35;;;0.90;;
10645;SDS011;5371;49.782;9.932;2023-08-06T08:53:37;1.20;;;0.98;;
10645;SDS011;5371;49.782;9.932;2023-08-06T08:56:04;1.83;;;1.00;;
10645;SDS011;5371;49.782;9.932;2023-08-06T08:58:32;1.88;;;0.90;;
10645;SDS011;5371;49.782;9.932;2023-08-06T09:01:00;1.42;;;1.00;;
10645;SDS011;5371;49.782;9.932;2023-08-06T09:03:28;1.95;;;0.70;;
10645;SDS011;5371;49.782;9.932;2023-08-06T09:05:55;1.08;;;0.80;;
10645;SDS011;5371;49.782;9.932;2023-08-06T09:08:24;0.95;;;0.82;;
10645;SDS011;5371;49.782;9.932;2023-08-06T09:10:54;0.75;;;0.70;;
10645;SDS011;5371;49.782;9.932;2023-08-06T09:13:23;1.05;;;0.75;;
10645;SDS011;5371;49.782;9.932;2023-08-06T09:15:51;2.58;;;0.90;;
10645;SDS011;5371;49.782;9.932;2023-08-06T09:18:24;0.80;;;0.70;;
10645;SDS011;5371;49.782;9.932;2023-08-06T09:20:52;1.25;;;0.73;;
10645;SDS011;5371;49.782;9.932;2023-08-06T09:23:19;1.70;;;1.00;;
10645;SDS011;5371;49.782;9.932;2023-08-06T09:25:46;2.33;;;1.00;;
10645;SDS011;5371;49.782;9.932;2023-08-06T09:28:15;0.70;;;0.70;;
10645;SDS011;5371;49.782;9.932;2023-08-06T09:30:42;0.98;;;0.70;;
10645;SDS011;5371;49.782;9.932;2023-08-06T09:33:09;1.67;;;0.70;;
10645;SDS011;5371;49.782;9.932;2023-08-06T09:35:38;0.80;;;0.80;;
10645;SDS011;5371;49.782;9.932;2023-08-06T09:38:06;0.52;;;0.52;;
10645;SDS011;5371;49.782;9.932;2023-08-06T09:40:33;0.60;;;0.60;;
10645;SDS011;5371;49.782;9.932;2023-08-06T09:43:02;0.77;;;0.60;;
10645;SDS011;5371;49.782;9.932;2023-08-06T09:45:33;1.40;;;1.10;;
10645;SDS011;5371;49.782;9.932;2023-08-06T09:48:02;0.70;;;0.60;;
10645;SDS011;5371;49.782;9.932;2023-08-06T09:50:30;0.95;;;0.60;;
10645;SDS011;5371;49.782;9.932;2023-08-06T09:53:00;1.48;;;0.60;;
10645;SDS011;5371;49.782;9.932;2023-08-06T09:55:27;0.50;;;0.50;;
10645;SDS011;5371;49.782;9.932;2023-08-06T09:57:55;3.83;;;0.70;;
10645;SDS011;5371;49.782;9.932;2023-08-06T10:00:22;0.68;;;0.50;;
10645;SDS011;5371;49.782;9.932;2023-08-06T10:02:49;0.63;;;0.60;;
10645;SDS011;5371;49.782;9.932;2023-08-06T10:05:21;0.60;;;0.57;;
10645;SDS011;5371;49.782;9.932;2023-08-06T10:07:49;0.47;;;0.47;;
10645;SDS011;5371;49.782;9.932;2023-08-06T10:10:19;0.50;;;0.50;;
10645;SDS011;5371;49.782;9.932;2023-08-06T10:12:46;0.50;;;0.50;;
10645;SDS011;5371;49.782;9.932;2023-08-06T10:15:17;0.50;;;0.50;;
10645;SDS011;5371;49.782;9.932;2023-08-06T10:17:47;0.50;;;0.50;;
10645;SDS011;5371;49.782;9.932;2023-08-06T10:20:17;0.98;;;0.57;;
10645;SDS011;5371;49.782;9.932;2023-08-06T10:22:46;0.80;;;0.70;;
10645;SDS011;5371;49.782;9.932;2023-08-06T10:25:34;1.50;;;0.70;;
10645;SDS011;5371;49.782;9.932;2023-08-06T10:28:07;0.60;;;0.50;;
10645;SDS011;5371;49.782;9.932;2023-08-06T10:30:41;0.50;;;0.50;;
10645;SDS011;5371;49.782;9.932;2023-08-06T10:33:08;0.60;;;0.60;;
10645;SDS011;5371;49.782;9.932;2023-08-06T10:35:37;0.40;;;0.40;;
10645;SDS011;5371;49.782;9.932;2023-08-06T10:38:10;1.40;;;0.60;;
10645;SDS011;5371;49.782;9.932;2023-08-06T10:40:40;0.68;;;0.60;;
10645;SDS011;5371;49.782;9.932;2023-08-06T10:43:11;0.73;;;0.73;;
10645;SDS011;5371;49.782;9.932;2023-08-06T10:45:51;0.60;;;0.55;;
10645;SDS011;5371;49.782;9.932;2023-08-06T10:48:29;0.55;;;0.55;;
10645;SDS011;5371;49.782;9.932;2023-08-06T10:50:57;0.60;;;0.60;;
10645;SDS011;5371;49.782;9.932;2023-08-06T10:53:25;0.60;;;0.60;;
10645;SDS011;5371;49.782;9.932;2023-08-06T10:55:54;0.80;;;0.63;;
10645;SDS011;5371;49.782;9.932;2023-08-06T10:58:23;0.50;;;0.50;;
10645;SDS011;5371;49.782;9.932;2023-08-06T11:00:50;1.75;;;0.57;;
10645;SDS011;5371;49.782;9.932;2023-08-06T11:03:17;0.95;;;0.77;;
10645;SDS011;5371;49.782;9.932;2023-08-06T11:05:48;0.50;;;0.50;;
10645;SDS011;5371;49.782;9.932;2023-08-06T11:08:23;2.40;;;0.98;;
10645;SDS011;5371;49.782;9.932;2023-08-06T11:10:51;0.52;;;0.52;;
10645;SDS011;5371;49.782;9.932;2023-08-06T11:13:20;1.67;;;0.70;;
10645;SDS011;5371;49.782;9.932;2023-08-06T11:15:47;2.15;;;0.70;;
10645;SDS011;5371;49.782;9.932;2023-08-06T11:18:14;1.23;;;0.80;;
10645;SDS011;5371;49.782;9.932;2023-08-06T11:20:41;2.45;;;0.90;;
10645;SDS011;5371;49.782;9.932;2023-08-06T11:23:09;2.40;;;0.95;;
10645;SDS011;5371;49.782;9.932;2023-08-06T11:25:38;0.63;;;0.63;;
10645;SDS011;5371;49.782;9.932;2023-08-06T11:28:11;2.10;;;0.80;;
10645;SDS011;5371;49.782;9.932;2023-08-06T11:30:39;0.80;;;0.65;;
10645;SDS011;5371;49.782;9.932;2023-08-06T11:33:07;0.63;;;0.50;;
10645;SDS011;5371;49.782;9.932;2023-08-06T11:35:35;0.95;;;0.82;;
10645;SDS011;5371;49.782;9.932;2023-08-06T11:38:15;1.08;;;0.90;;
10645;SDS011;5371;49.782;9.932;2023-08-06T11:40:43;0.82;;;0.80;;
10645;SDS011;5371;49.782;9.932;2023-08-06T11:43:11;0.55;;;0.52;;
10645;SDS011;5371;49.782;9.932;2023-08-06T11:45:40;0.47;;;0.47;;
10645;SDS011;5371;49.782;9.932;2023-08-06T11:48:09;0.90;;;0.57;;
10645;SDS011;5371;49.782;9.932;2023-08-06T11:50:36;0.60;;;0.60;;
10645;SDS011;5371;49.782;9.932;2023-08-06T11:53:04;0.60;;;0.60;;
10645;SDS011;5371;49.782;9.932;2023-08-06T11:55:32;0.32;;;0.32;;
10645;SDS011;5371;49.782;9.932;2023-08-06T11:58:02;0.60;;;0.60;;
10645;SDS011;5371;49.782;9.932;2023-08-06T12:00:30;4.07;;;0.60;;
10645;SDS011;5371;49.782;9.932;2023-08-06T12:02:59;0.85;;;0.55;;
10645;SDS011;5371;49.782;9.932;2023-08-06T12:05:31;1.30;;;0.77;;
10645;SDS011;5371;49.782;9.932;2023-08-06T12:08:00;2.50;;;0.90;;
10645;SDS011;5371;49.782;9.932;2023-08-06T12:10:28;0.40;;;0.40;;
10645;SDS011;5371;49.782;9.932;2023-08-06T12:12:57;0.40;;;0.40;;
10645;SDS011;5371;49.782;9.932;2023-08-06T12:15:24;1.67;;;0.70;;
10645;SDS011;5371;49.782;9.932;2023-08-06T12:17:51;2.20;;;0.50;;
10645;SDS011;5371;49.782;9.932;2023-08-06T12:20:20;1.17;;;1.00;;
10645;SDS011;5371;49.782;9.932;2023-08-06T12:22:48;0.60;;;0.60;;
10645;SDS011;5371;49.782;9.932;2023-08-06T12:25:15;0.70;;;0.60;;
10645;SDS011;5371;49.782;9.932;2023-08-06T12:27:42;1.67;;;0.52;;
10645;SDS011;5371;49.782;9.932;2023-08-06T12:30:11;0.60;;;0.60;;
10645;SDS011;5371;49.782;9.932;2023-08-06T12:32:39;0.88;;;0.52;;
10645;SDS011;5371;49.782;9.932;2023-08-06T12:35:07;0.60;;;0.60;;
10645;SDS011;5371;49.782;9.932;2023-08-06T12:37:36;0.65;;;0.50;;
10645;SDS011;5371;49.782;9.932;2023-08-06T12:40:04;1.27;;;0.57;;
10645;SDS011;5371;49.782;9.932;2023-08-06T12:42:33;0.40;;;0.40;;
10645;SDS011;5371;49.782;9.932;2023-08-06T12:45:00;0.70;;;0.70;;
10645;SDS011;5371;49.782;9.932;2023-08-06T12:47:29;0.70;;;0.60;;
10645;SDS011;5371;49.782;9.932;2023-08-06T12:49:56;1.02;;;0.70;;
10645;SDS011;5371;49.782;9.932;2023-08-06T12:52:25;0.70;;;0.70;;
10645;SDS011;5371;49.782;9.932;2023-08-06T12:54:56;0.80;;;0.68;;
10645;SDS011;5371;49.782;9.932;2023-08-06T12:57:25;1.77;;;0.70;;
10645;SDS011;5371;49.782;9.932;2023-08-06T12:59:55;1.20;;;0.60;;
10645;SDS011;5371;49.782;9.932;2023-08-06T13:02:22;0.50;;;0.50;;
10645;SDS011;5371;49.782;9.932;2023-08-06T13:04:51;0.55;;;0.50;;
10645;SDS011;5371;49.782;9.932;2023-08-06T13:07:18;0.47;;;0.47;;
10645;SDS011;5371;49.782;9.932;2023-08-06T13:09:46;0.90;;;0.50;;
10645;SDS011;5371;49.782;9.932;2023-08-06T13:12:15;0.63;;;0.52;;
10645;SDS011;5371;49.782;9.932;2023-08-06T13:14:44;0.60;;;0.60;;
10645;SDS011;5371;49.782;9.932;2023-08-06T13:17:11;1.02;;;0.63;;
10645;SDS011;5371;49.782;9.932;2023-08-06T13:19:38;0.40;;;0.40;;
10645;SDS011;5371;49.782;9.932;2023-08-06T13:22:05;0.60;;;0.60;;
10645;SDS011;5371;49.782;9.932;2023-08-06T13:24:34;1.92;;;0.50;;
10645;SDS011;5371;49.782;9.932;2023-08-06T13:27:02;1.60;;;0.70;;
10645;SDS011;5371;49.782;9.932;2023-08-06T13:29:30;0.80;;;0.55;;
10645;SDS011;5371;49.782;9.932;2023-08-06T13:31:58;0.88;;;0.68;;
10645;SDS011;5371;49.782;9.932;2023-08-06T13:34:25;1.42;;;0.60;;
10645;SDS011;5371;49.782;9.932;2023-08-06T13:36:52;0.68;;;0.60;;
10645;SDS011;5371;49.782;9.932;2023-08-06T13:39:19;0.68;;;0.47;;
10645;SDS011;5371;49.782;9.932;2023-08-06T13:41:46;1.13;;;0.60;;
10645;SDS011;5371;49.782;9.932;2023-08-06T13:44:13;0.80;;;0.60;;
10645;SDS011;5371;49.782;9.932;2023-08-06T13:46:42;0.50;;;0.50;;
10645;SDS011;5371;49.782;9.932;2023-08-06T13:49:11;0.55;;;0.45;;
10645;SDS011;5371;49.782;9.932;2023-08-06T13:51:38;0.50;;;0.50;;
10645;SDS011;5371;49.782;9.932;2023-08-06T13:54:05;0.50;;;0.50;;
10645;SDS011;5371;49.782;9.932;2023-08-06T13:56:33;2.47;;;0.60;;
10645;SDS011;5371;49.782;9.932;2023-08-06T13:59:02;0.65;;;0.60;;
10645;SDS011;5371;49.782;9.932;2023-08-06T14:01:33;1.08;;;0.60;;
10645;SDS011;5371;49.782;9.932;2023-08-06T14:04:02;1.48;;;0.70;;
10645;SDS011;5371;49.782;9.932;2023-08-06T14:06:35;1.00;;;0.73;;
10645;SDS011;5371;49.782;9.932;2023-08-06T14:09:04;1.38;;;0.68;;
10645;SDS011;5371;49.782;9.932;2023-08-06T14:11:31;0.98;;;0.80;;
10645;SDS011;5371;49.782;9.932;2023-08-06T14:13:58;0.98;;;0.80;;
10645;SDS011;5371;49.782;9.932;2023-08-06T14:16:26;2.20;;;0.70;;
10645;SDS011;5371;49.782;9.932;2023-08-06T14:18:53;0.82;;;0.70;;
10645;SDS011;5371;49.782;9.932;2023-08-06T14:21:22;1.40;;;0.80;;
10645;SDS011;5371;49.782;9.932;2023-08-06T14:23:49;1.08;;;0.77;;
10645;SDS011;5371;49.782;9.932;2023-08-06T14:26:16;0.80;;;0.80;;
10645;SDS011;5371;49.782;9.932;2023-08-06T14:28:43;1.38;;;0.85;;
10645;SDS011;5371;49.782;9.932;2023-08-06T14:31:10;0.80;;;0.80;;
10645;SDS011;5371;49.782;9.932;2023-08-06T14:33:39;1.00;;;0.90;;
10645;SDS011;5371;49.782;9.932;2023-08-06T14:36:07;0.90;;;0.70;;
10645;SDS011;5371;49.782;9.932;2023-08-06T14:38:36;2.20;;;0.90;;
10645;SDS011;5371;49.782;9.932;2023-08-06T14:41:03;1.33;;;0.93;;
10645;SDS011;5371;49.782;9.932;2023-08-06T14:43:31;1.20;;;0.80;;
10645;SDS011;5371;49.782;9.932;2023-08-06T14:45:59;3.17;;;0.90;;
10645;SDS011;5371;49.782;9.932;2023-08-06T14:48:26;0.98;;;0.90;;
10645;SDS011;5371;49.782;9.932;2023-08-06T14:50:53;1.15;;;0.90;;
10645;SDS011;5371;49.782;9.932;2023-08-06T14:53:21;1.27;;;0.80;;
10645;SDS011;5371;49.782;9.932;2023-08-06T14:55:50;3.65;;;0.82;;
10645;SDS011;5371;49.782;9.932;2023-08-06T14:58:17;1.23;;;0.80;;
10645;SDS011;5371;49.782;9.932;2023-08-06T15:00:45;1.38;;;0.93;;
10645;SDS011;5371;49.782;9.932;2023-08-06T15:03:14;1.48;;;0.80;;
10645;SDS011;5371;49.782;9.932;2023-08-06T15:05:42;0.95;;;0.77;;